sensor_id;sensor_type;location;lat;lon;timestamp;P1;durP1;ratioP1;P2;durP2;ratioP2
71734;SDS011;59577;52.122;5.406;2022-08-20T00:01:00;4.40;;;3.53;;
71734;SDS011;59577;52.122;5.406;2022-08-20T00:03:35;4.68;;;4.18;;
71734;SDS011;59577;52.122;5.406;2022-08-20T00:06:12;7.82;;;4.13;;
71734;SDS011;59577;52.122;5.406;2022-08-20T00:08:42;6.15;;;4.65;;
71734;SDS011;59577;52.122;5.406;2022-08-20T00:11:10;8.02;;;4.20;;
71734;SDS011;59577;52.122;5.406;2022-08-20T00:13:47;5.20;;;3.17;;
71734;SDS011;59577;52.122;5.406;2022-08-20T00:16:19;7.80;;;3.90;;
71734;SDS011;59577;52.122;5.406;2022-08-20T00:18:48;5.55;;;4.22;;
71734;SDS011;59577;52.122;5.406;2022-08-20T00:21:16;4.88;;;3.75;;
71734;SDS011;59577;52.122;5.406;2022-08-20T00:23:45;4.55;;;3.40;;
71734;SDS011;59577;52.122;5.406;2022-08-20T00:26:14;7.83;;;4.10;;
71734;SDS011;59577;52.122;5.406;2022-08-20T00:28:41;5.70;;;3.88;;
71734;SDS011;59577;52.122;5.406;2022-08-20T00:31:10;5.50;;;4.03;;
71734;SDS011;59577;52.122;5.406;2022-08-20T00:33:38;10.52;;;4.38;;
71734;SDS011;59577;52.122;5.406;2022-08-20T00:36:05;9.60;;;5.78;;
71734;SDS011;59577;52.122;5.406;2022-08-20T00:38:38;7.07;;;4.60;;
71734;SDS011;59577;52.122;5.406;2022-08-20T00:41:07;4.70;;;3.67;;
71734;SDS011;59577;52.122;5.406;2022-08-20T00:43:36;6.32;;;4.55;;
71734;SDS011;59577;52.122;5.406;2022-08-20T00:46:09;7.38;;;5.50;;
71734;SDS011;59577;52.122;5.406;2022-08-20T00:48:56;7.75;;;4.95;;
71734;SDS011;59577;52.122;5.406;2022-08-20T00:51:25;3.83;;;2.90;;
71734;SDS011;59577;52.122;5.406;2022-08-20T00:54:06;5.65;;;3.83;;
71734;SDS011;59577;52.122;5.406;2022-08-20T00:56:39;7.80;;;3.50;;
71734;SDS011;59577;52.122;5.406;2022-08-20T00:59:11;8.52;;;3.85;;
71734;SDS011;59577;52.122;5.406;2022-08-20T01:01:41;10.23;;;5.13;;
71734;SDS011;59577;52.122;5.406;2022-08-20T01:04:22;8.00;;;5.33;;
71734;SDS011;59577;52.122;5.406;2022-08-20T01:06:51;7.90;;;5.70;;
71734;SDS011;59577;52.122;5.406;2022-08-20T01:09:17;6.47;;;5.40;;
71734;SDS011;59577;52.122;5.406;2022-08-20T01:12:05;8.40;;;4.85;;
71734;SDS011;59577;52.122;5.406;2022-08-20T01:14:35;8.15;;;4.97;;
71734;SDS011;59577;52.122;5.406;2022-08-20T01:17:12;8.10;;;4.93;;
71734;SDS011;59577;52.122;5.406;2022-08-20T01:19:53;10.18;;;5.32;;
71734;SDS011;59577;52.122;5.406;2022-08-20T01:22:45;10.18;;;5.72;;
71734;SDS011;59577;52.122;5.406;2022-08-20T01:31:16;9.07;;;4.90;;
71734;SDS011;59577;52.122;5.406;2022-08-20T01:33:46;10.05;;;4.38;;
71734;SDS011;59577;52.122;5.406;2022-08-20T01:36:13;12.98;;;5.30;;
71734;SDS011;59577;52.122;5.406;2022-08-20T01:38:42;6.78;;;3.90;;
71734;SDS011;59577;52.122;5.406;2022-08-20T01:44:11;4.03;;;3.00;;
71734;SDS011;59577;52.122;5.406;2022-08-20T01:46:44;4.95;;;3.20;;
71734;SDS011;59577;52.122;5.406;2022-08-20T01:49:15;5.03;;;3.13;;
71734;SDS011;59577;52.122;5.406;2022-08-20T01:51:49;6.10;;;3.30;;
71734;SDS011;59577;52.122;5.406;2022-08-20T01:54:17;6.55;;;3.78;;
71734;SDS011;59577;52.122;5.406;2022-08-20T01:59:30;6.32;;;3.88;;
71734;SDS011;59577;52.122;5.406;2022-08-20T02:01:57;4.68;;;3.28;;
71734;SDS011;59577;52.122;5.406;2022-08-20T02:04:25;6.43;;;3.88;;
71734;SDS011;59577;52.122;5.406;2022-08-20T02:06:53;8.95;;;4.93;;
71734;SDS011;59577;52.122;5.406;2022-08-20T02:09:31;7.00;;;4.70;;
71734;SDS011;59577;52.122;5.406;2022-08-20T02:11:59;6.75;;;4.82;;
71734;SDS011;59577;52.122;5.406;2022-08-20T02:14:28;9.02;;;4.65;;
71734;SDS011;59577;52.122;5.406;2022-08-20T02:16:55;8.90;;;4.78;;
71734;SDS011;59577;52.122;5.406;2022-08-20T02:19:28;10.55;;;5.03;;
71734;SDS011;59577;52.122;5.406;2022-08-20T02:21:59;8.33;;;4.57;;
71734;SDS011;59577;52.122;5.406;2022-08-20T02:24:28;6.20;;;4.22;;
71734;SDS011;59577;52.122;5.406;2022-08-20T02:26:55;8.60;;;4.18;;
71734;SDS011;59577;52.122;5.406;2022-08-20T02:29:22;8.27;;;4.30;;
71734;SDS011;59577;52.122;5.406;2022-08-20T02:31:49;6.70;;;4.32;;
71734;SDS011;59577;52.122;5.406;2022-08-20T02:34:35;6.07;;;4.03;;
71734;SDS011;59577;52.122;5.406;2022-08-20T02:37:03;5.20;;;3.50;;
71734;SDS011;59577;52.122;5.406;2022-08-20T02:39:32;6.18;;;4.05;;
71734;SDS011;59577;52.122;5.406;2022-08-20T02:41:59;6.95;;;4.13;;
71734;SDS011;59577;52.122;5.406;2022-08-20T02:44:28;5.30;;;3.78;;
71734;SDS011;59577;52.122;5.406;2022-08-20T02:46:55;6.03;;;3.70;;
71734;SDS011;59577;52.122;5.406;2022-08-20T02:49:22;6.30;;;4.25;;
71734;SDS011;59577;52.122;5.406;2022-08-20T02:51:48;8.65;;;4.57;;
71734;SDS011;59577;52.122;5.406;2022-08-20T02:54:15;6.63;;;4.60;;
71734;SDS011;59577;52.122;5.406;2022-08-20T02:56:42;4.90;;;4.05;;
71734;SDS011;59577;52.122;5.406;2022-08-20T02:59:09;5.43;;;3.90;;
71734;SDS011;59577;52.122;5.406;2022-08-20T03:01:44;6.97;;;4.07;;
71734;SDS011;59577;52.122;5.406;2022-08-20T03:04:10;8.65;;;4.47;;
71734;SDS011;59577;52.122;5.406;2022-08-20T03:06:37;5.57;;;3.95;;
71734;SDS011;59577;52.122;5.406;2022-08-20T03:09:03;6.15;;;4.00;;
71734;SDS011;59577;52.122;5.406;2022-08-20T03:11:32;5.23;;;3.43;;
71734;SDS011;59577;52.122;5.406;2022-08-20T03:14:00;10.02;;;3.95;;
71734;SDS011;59577;52.122;5.406;2022-08-20T03:16:27;4.55;;;3.80;;
71734;SDS011;59577;52.122;5.406;2022-08-20T03:18:53;5.90;;;3.92;;
71734;SDS011;59577;52.122;5.406;2022-08-20T03:21:20;4.63;;;3.40;;
71734;SDS011;59577;52.122;5.406;2022-08-20T03:23:47;7.20;;;4.07;;
71734;SDS011;59577;52.122;5.406;2022-08-20T03:26:13;4.13;;;3.72;;
71734;SDS011;59577;52.122;5.406;2022-08-20T03:28:41;5.20;;;3.13;;
71734;SDS011;59577;52.122;5.406;2022-08-20T03:31:08;6.50;;;3.70;;
71734;SDS011;59577;52.122;5.406;2022-08-20T03:33:39;7.43;;;4.10;;
71734;SDS011;59577;52.122;5.406;2022-08-20T03:36:18;8.13;;;3.83;;
71734;SDS011;59577;52.122;5.406;2022-08-20T03:38:54;4.35;;;3.30;;
71734;SDS011;59577;52.122;5.406;2022-08-20T03:41:21;5.88;;;3.67;;
71734;SDS011;59577;52.122;5.406;2022-08-20T03:43:48;4.82;;;3.83;;
71734;SDS011;59577;52.122;5.406;2022-08-20T03:46:15;3.90;;;3.22;;
71734;SDS011;59577;52.122;5.406;2022-08-20T03:48:49;8.30;;;3.70;;
71734;SDS011;59577;52.122;5.406;2022-08-20T03:51:25;5.03;;;3.17;;
71734;SDS011;59577;52.122;5.406;2022-08-20T03:53:56;3.95;;;2.88;;
71734;SDS011;59577;52.122;5.406;2022-08-20T03:56:23;4.13;;;3.72;;
71734;SDS011;59577;52.122;5.406;2022-08-20T03:58:51;5.35;;;3.90;;
71734;SDS011;59577;52.122;5.406;2022-08-20T04:01:18;4.07;;;3.63;;
71734;SDS011;59577;52.122;5.406;2022-08-20T04:04:04;5.72;;;3.72;;
71734;SDS011;59577;52.122;5.406;2022-08-20T04:06:37;3.72;;;3.35;;
71734;SDS011;59577;52.122;5.406;2022-08-20T04:09:05;3.80;;;3.05;;
71734;SDS011;59577;52.122;5.406;2022-08-20T04:11:34;6.65;;;3.78;;
71734;SDS011;59577;52.122;5.406;2022-08-20T04:14:01;4.93;;;3.23;;
71734;SDS011;59577;52.122;5.406;2022-08-20T04:16:29;5.38;;;3.33;;
71734;SDS011;59577;52.122;5.406;2022-08-20T04:18:59;5.22;;;3.08;;
71734;SDS011;59577;52.122;5.406;2022-08-20T04:21:30;3.85;;;3.00;;
71734;SDS011;59577;52.122;5.406;2022-08-20T04:23:59;5.93;;;2.78;;
71734;SDS011;59577;52.122;5.406;2022-08-20T04:26:27;4.90;;;2.50;;
71734;SDS011;59577;52.122;5.406;2022-08-20T04:28:54;4.25;;;3.03;;
71734;SDS011;59577;52.122;5.406;2022-08-20T04:31:21;4.75;;;2.90;;
71734;SDS011;59577;52.122;5.406;2022-08-20T04:34:02;7.95;;;3.67;;
71734;SDS011;59577;52.122;5.406;2022-08-20T04:36:29;3.25;;;2.22;;
71734;SDS011;59577;52.122;5.406;2022-08-20T04:38:56;3.63;;;2.67;;
71734;SDS011;59577;52.122;5.406;2022-08-20T04:41:23;4.57;;;3.00;;
71734;SDS011;59577;52.122;5.406;2022-08-20T04:43:53;4.25;;;3.22;;
71734;SDS011;59577;52.122;5.406;2022-08-20T04:46:22;3.28;;;2.97;;
71734;SDS011;59577;52.122;5.406;2022-08-20T04:48:52;3.72;;;2.95;;
71734;SDS011;59577;52.122;5.406;2022-08-20T04:51:20;5.00;;;3.30;;
71734;SDS011;59577;52.122;5.406;2022-08-20T04:53:48;3.42;;;3.08;;
71734;SDS011;59577;52.122;5.406;2022-08-20T04:56:19;7.43;;;2.45;;
71734;SDS011;59577;52.122;5.406;2022-08-20T04:58:55;3.13;;;2.83;;
71734;SDS011;59577;52.122;5.406;2022-08-20T05:01:23;3.38;;;3.05;;
71734;SDS011;59577;52.122;5.406;2022-08-20T05:03:51;6.47;;;3.60;;
71734;SDS011;59577;52.122;5.406;2022-08-20T05:06:21;6.38;;;3.28;;
71734;SDS011;59577;52.122;5.406;2022-08-20T05:08:51;5.03;;;3.40;;
71734;SDS011;59577;52.122;5.406;2022-08-20T05:11:18;3.53;;;3.20;;
71734;SDS011;59577;52.122;5.406;2022-08-20T05:14:05;5.65;;;3.60;;
71734;SDS011;59577;52.122;5.406;2022-08-20T05:16:37;3.00;;;2.40;;
71734;SDS011;59577;52.122;5.406;2022-08-20T05:19:06;5.38;;;3.20;;
71734;SDS011;59577;52.122;5.406;2022-08-20T05:21:34;3.20;;;2.90;;
71734;SDS011;59577;52.122;5.406;2022-08-20T05:24:01;4.82;;;2.88;;
71734;SDS011;59577;52.122;5.406;2022-08-20T05:26:28;3.08;;;2.50;;
71734;SDS011;59577;52.122;5.406;2022-08-20T05:28:54;5.27;;;3.33;;
71734;SDS011;59577;52.122;5.406;2022-08-20T05:31:25;4.63;;;3.47;;
71734;SDS011;59577;52.122;5.406;2022-08-20T05:34:16;4.63;;;3.50;;
71734;SDS011;59577;52.122;5.406;2022-08-20T05:36:46;4.38;;;3.13;;
71734;SDS011;59577;52.122;5.406;2022-08-20T05:39:15;6.07;;;3.00;;
71734;SDS011;59577;52.122;5.406;2022-08-20T05:41:43;4.13;;;2.77;;
71734;SDS011;59577;52.122;5.406;2022-08-20T05:44:10;5.65;;;2.83;;
71734;SDS011;59577;52.122;5.406;2022-08-20T05:46:39;2.80;;;2.60;;
71734;SDS011;59577;52.122;5.406;2022-08-20T05:49:08;4.45;;;2.45;;
71734;SDS011;59577;52.122;5.406;2022-08-20T05:51:35;2.25;;;2.05;;
71734;SDS011;59577;52.122;5.406;2022-08-20T05:54:02;3.60;;;2.47;;
71734;SDS011;59577;52.122;5.406;2022-08-20T05:56:30;5.50;;;2.65;;
71734;SDS011;59577;52.122;5.406;2022-08-20T05:59:01;5.53;;;3.38;;
71734;SDS011;59577;52.122;5.406;2022-08-20T06:01:32;2.65;;;2.20;;
71734;SDS011;59577;52.122;5.406;2022-08-20T06:04:00;3.65;;;2.42;;
71734;SDS011;59577;52.122;5.406;2022-08-20T06:07:06;4.20;;;2.30;;
71734;SDS011;59577;52.122;5.406;2022-08-20T06:09:33;3.17;;;1.90;;
71734;SDS011;59577;52.122;5.406;2022-08-20T06:12:02;2.63;;;2.00;;
71734;SDS011;59577;52.122;5.406;2022-08-20T06:14:31;6.07;;;2.38;;
71734;SDS011;59577;52.122;5.406;2022-08-20T06:17:02;5.00;;;1.70;;
71734;SDS011;59577;52.122;5.406;2022-08-20T06:19:40;1.90;;;1.60;;
71734;SDS011;59577;52.122;5.406;2022-08-20T06:22:09;3.65;;;1.60;;
71734;SDS011;59577;52.122;5.406;2022-08-20T06:24:51;2.72;;;1.75;;
71734;SDS011;59577;52.122;5.406;2022-08-20T06:27:18;3.05;;;1.30;;
71734;SDS011;59577;52.122;5.406;2022-08-20T06:29:45;3.55;;;1.23;;
71734;SDS011;59577;52.122;5.406;2022-08-20T06:32:13;2.80;;;1.10;;
71734;SDS011;59577;52.122;5.406;2022-08-20T06:34:39;3.60;;;1.30;;
71734;SDS011;59577;52.122;5.406;2022-08-20T06:37:20;2.65;;;1.00;;
71734;SDS011;59577;52.122;5.406;2022-08-20T06:39:59;5.70;;;1.50;;
71734;SDS011;59577;52.122;5.406;2022-08-20T06:42:28;4.07;;;1.10;;
71734;SDS011;59577;52.122;5.406;2022-08-20T06:44:54;3.53;;;1.13;;
71734;SDS011;59577;52.122;5.406;2022-08-20T06:47:21;5.90;;;1.20;;
71734;SDS011;59577;52.122;5.406;2022-08-20T06:49:48;2.88;;;1.00;;
71734;SDS011;59577;52.122;5.406;2022-08-20T06:52:14;3.08;;;1.10;;
71734;SDS011;59577;52.122;5.406;2022-08-20T06:54:43;5.82;;;1.25;;
71734;SDS011;59577;52.122;5.406;2022-08-20T06:57:10;5.80;;;1.30;;
71734;SDS011;59577;52.122;5.406;2022-08-20T06:59:37;4.18;;;1.23;;
71734;SDS011;59577;52.122;5.406;2022-08-20T07:02:04;8.35;;;1.40;;
71734;SDS011;59577;52.122;5.406;2022-08-20T07:04:31;3.30;;;1.15;;
71734;SDS011;59577;52.122;5.406;2022-08-20T07:06:57;3.72;;;1.17;;
71734;SDS011;59577;52.122;5.406;2022-08-20T07:09:25;4.77;;;1.30;;
71734;SDS011;59577;52.122;5.406;2022-08-20T07:11:52;5.38;;;1.30;;
71734;SDS011;59577;52.122;5.406;2022-08-20T07:14:19;3.75;;;1.00;;
71734;SDS011;59577;52.122;5.406;2022-08-20T07:16:45;3.50;;;1.35;;
71734;SDS011;59577;52.122;5.406;2022-08-20T07:19:12;4.50;;;1.10;;
71734;SDS011;59577;52.122;5.406;2022-08-20T07:21:40;4.43;;;1.10;;
71734;SDS011;59577;52.122;5.406;2022-08-20T07:24:06;6.90;;;1.27;;
71734;SDS011;59577;52.122;5.406;2022-08-20T07:26:35;3.90;;;1.00;;
71734;SDS011;59577;52.122;5.406;2022-08-20T07:29:01;4.57;;;1.40;;
71734;SDS011;59577;52.122;5.406;2022-08-20T07:31:28;8.07;;;2.08;;
71734;SDS011;59577;52.122;5.406;2022-08-20T07:34:15;5.87;;;1.40;;
71734;SDS011;59577;52.122;5.406;2022-08-20T07:36:41;5.00;;;1.00;;
71734;SDS011;59577;52.122;5.406;2022-08-20T07:39:08;4.05;;;0.75;;
71734;SDS011;59577;52.122;5.406;2022-08-20T07:41:35;5.10;;;0.82;;
71734;SDS011;59577;52.122;5.406;2022-08-20T07:44:01;1.98;;;0.80;;
71734;SDS011;59577;52.122;5.406;2022-08-20T07:46:28;5.50;;;1.00;;
71734;SDS011;59577;52.122;5.406;2022-08-20T07:48:56;4.63;;;1.00;;
71734;SDS011;59577;52.122;5.406;2022-08-20T07:51:23;5.38;;;1.52;;
71734;SDS011;59577;52.122;5.406;2022-08-20T07:53:50;5.00;;;0.90;;
71734;SDS011;59577;52.122;5.406;2022-08-20T07:56:19;3.00;;;1.15;;
71734;SDS011;59577;52.122;5.406;2022-08-20T07:58:53;5.97;;;1.00;;
71734;SDS011;59577;52.122;5.406;2022-08-20T08:01:22;5.20;;;1.00;;
71734;SDS011;59577;52.122;5.406;2022-08-20T08:03:51;4.50;;;1.00;;
71734;SDS011;59577;52.122;5.406;2022-08-20T08:06:18;4.38;;;1.08;;
71734;SDS011;59577;52.122;5.406;2022-08-20T08:09:06;4.03;;;1.10;;
71734;SDS011;59577;52.122;5.406;2022-08-20T08:11:37;6.70;;;1.33;;
71734;SDS011;59577;52.122;5.406;2022-08-20T08:14:12;4.20;;;1.08;;
71734;SDS011;59577;52.122;5.406;2022-08-20T08:16:39;3.95;;;1.33;;
71734;SDS011;59577;52.122;5.406;2022-08-20T08:19:10;4.30;;;1.10;;
71734;SDS011;59577;52.122;5.406;2022-08-20T08:21:39;5.43;;;1.45;;
71734;SDS011;59577;52.122;5.406;2022-08-20T08:24:06;4.13;;;1.20;;
71734;SDS011;59577;52.122;5.406;2022-08-20T08:26:33;5.68;;;1.23;;
71734;SDS011;59577;52.122;5.406;2022-08-20T08:28:59;5.15;;;1.63;;
71734;SDS011;59577;52.122;5.406;2022-08-20T08:31:26;4.18;;;1.10;;
71734;SDS011;59577;52.122;5.406;2022-08-20T08:34:18;6.00;;;1.40;;
71734;SDS011;59577;52.122;5.406;2022-08-20T08:36:44;5.47;;;1.40;;
71734;SDS011;59577;52.122;5.406;2022-08-20T08:39:11;3.78;;;1.50;;
71734;SDS011;59577;52.122;5.406;2022-08-20T08:41:41;3.22;;;1.48;;
71734;SDS011;59577;52.122;5.406;2022-08-20T08:44:16;3.60;;;1.60;;
71734;SDS011;59577;52.122;5.406;2022-08-20T08:46:50;3.33;;;1.85;;
71734;SDS011;59577;52.122;5.406;2022-08-20T08:49:23;6.47;;;1.60;;
71734;SDS011;59577;52.122;5.406;2022-08-20T08:52:08;7.00;;;1.50;;
71734;SDS011;59577;52.122;5.406;2022-08-20T08:54:42;4.03;;;1.63;;
71734;SDS011;59577;52.122;5.406;2022-08-20T08:57:16;5.55;;;1.85;;
71734;SDS011;59577;52.122;5.406;2022-08-20T08:59:44;3.60;;;1.60;;
71734;SDS011;59577;52.122;5.406;2022-08-20T09:02:30;5.33;;;2.07;;
71734;SDS011;59577;52.122;5.406;2022-08-20T09:04:59;5.82;;;1.92;;
71734;SDS011;59577;52.122;5.406;2022-08-20T09:07:30;5.93;;;1.80;;
71734;SDS011;59577;52.122;5.406;2022-08-20T09:09:59;7.07;;;2.28;;
71734;SDS011;59577;52.122;5.406;2022-08-20T09:12:26;4.38;;;2.03;;
71734;SDS011;59577;52.122;5.406;2022-08-20T09:14:53;4.93;;;1.80;;
71734;SDS011;59577;52.122;5.406;2022-08-20T09:17:20;3.97;;;2.28;;
71734;SDS011;59577;52.122;5.406;2022-08-20T09:19:50;3.80;;;2.10;;
71734;SDS011;59577;52.122;5.406;2022-08-20T09:22:19;2.85;;;1.80;;
71734;SDS011;59577;52.122;5.406;2022-08-20T09:24:48;3.78;;;1.67;;
71734;SDS011;59577;52.122;5.406;2022-08-20T09:27:15;4.33;;;1.80;;
71734;SDS011;59577;52.122;5.406;2022-08-20T09:29:42;4.68;;;2.13;;
71734;SDS011;59577;52.122;5.406;2022-08-20T09:32:20;3.47;;;1.85;;
71734;SDS011;59577;52.122;5.406;2022-08-20T09:34:49;3.25;;;2.00;;
71734;SDS011;59577;52.122;5.406;2022-08-20T09:37:21;2.75;;;2.28;;
71734;SDS011;59577;52.122;5.406;2022-08-20T09:39:49;5.30;;;1.90;;
71734;SDS011;59577;52.122;5.406;2022-08-20T09:42:17;3.90;;;2.20;;
71734;SDS011;59577;52.122;5.406;2022-08-20T09:44:45;3.35;;;2.10;;
71734;SDS011;59577;52.122;5.406;2022-08-20T09:47:12;3.78;;;2.10;;
71734;SDS011;59577;52.122;5.406;2022-08-20T09:49:39;2.85;;;2.30;;
71734;SDS011;59577;52.122;5.406;2022-08-20T09:52:06;4.17;;;2.00;;
71734;SDS011;59577;52.122;5.406;2022-08-20T09:54:42;5.03;;;2.28;;
71734;SDS011;59577;52.122;5.406;2022-08-20T09:57:12;4.75;;;2.47;;
71734;SDS011;59577;52.122;5.406;2022-08-20T09:59:40;2.78;;;1.55;;
71734;SDS011;59577;52.122;5.406;2022-08-20T10:02:07;3.55;;;2.17;;
71734;SDS011;59577;52.122;5.406;2022-08-20T10:04:34;8.37;;;2.33;;
71734;SDS011;59577;52.122;5.406;2022-08-20T10:07:00;3.45;;;2.17;;
71734;SDS011;59577;52.122;5.406;2022-08-20T10:09:27;2.90;;;2.17;;
71734;SDS011;59577;52.122;5.406;2022-08-20T10:12:01;3.92;;;2.25;;
71734;SDS011;59577;52.122;5.406;2022-08-20T10:14:43;4.03;;;2.15;;
71734;SDS011;59577;52.122;5.406;2022-08-20T10:17:09;3.90;;;2.07;;
71734;SDS011;59577;52.122;5.406;2022-08-20T10:19:36;3.97;;;2.03;;
71734;SDS011;59577;52.122;5.406;2022-08-20T10:22:02;3.90;;;2.28;;
71734;SDS011;59577;52.122;5.406;2022-08-20T10:24:30;7.80;;;2.47;;
71734;SDS011;59577;52.122;5.406;2022-08-20T10:26:57;5.15;;;2.53;;
71734;SDS011;59577;52.122;5.406;2022-08-20T10:29:25;3.67;;;2.17;;
71734;SDS011;59577;52.122;5.406;2022-08-20T10:31:54;3.70;;;2.25;;
71734;SDS011;59577;52.122;5.406;2022-08-20T10:34:22;6.35;;;1.90;;
71734;SDS011;59577;52.122;5.406;2022-08-20T10:36:50;4.78;;;2.03;;
71734;SDS011;59577;52.122;5.406;2022-08-20T10:39:17;5.80;;;1.95;;
71734;SDS011;59577;52.122;5.406;2022-08-20T10:41:43;6.83;;;1.87;;
71734;SDS011;59577;52.122;5.406;2022-08-20T10:44:10;4.57;;;1.90;;
71734;SDS011;59577;52.122;5.406;2022-08-20T10:46:36;4.65;;;1.75;;
71734;SDS011;59577;52.122;5.406;2022-08-20T10:49:03;5.25;;;1.52;;
71734;SDS011;59577;52.122;5.406;2022-08-20T10:51:30;3.35;;;1.65;;
71734;SDS011;59577;52.122;5.406;2022-08-20T10:53:58;4.33;;;1.30;;
71734;SDS011;59577;52.122;5.406;2022-08-20T10:56:25;4.72;;;1.45;;
71734;SDS011;59577;52.122;5.406;2022-08-20T10:58:51;5.82;;;1.73;;
71734;SDS011;59577;52.122;5.406;2022-08-20T11:01:18;4.13;;;1.30;;
71734;SDS011;59577;52.122;5.406;2022-08-20T11:03:59;5.40;;;1.65;;
71734;SDS011;59577;52.122;5.406;2022-08-20T11:06:25;6.87;;;1.60;;
71734;SDS011;59577;52.122;5.406;2022-08-20T11:08:52;4.38;;;1.55;;
71734;SDS011;59577;52.122;5.406;2022-08-20T11:11:22;5.53;;;1.50;;
71734;SDS011;59577;52.122;5.406;2022-08-20T11:13:48;4.30;;;1.60;;
71734;SDS011;59577;52.122;5.406;2022-08-20T11:16:15;2.90;;;1.55;;
71734;SDS011;59577;52.122;5.406;2022-08-20T11:18:41;4.23;;;1.40;;
71734;SDS011;59577;52.122;5.406;2022-08-20T11:21:12;3.80;;;1.33;;
71734;SDS011;59577;52.122;5.406;2022-08-20T11:23:39;2.65;;;1.10;;
71734;SDS011;59577;52.122;5.406;2022-08-20T11:26:06;3.05;;;1.17;;
71734;SDS011;59577;52.122;5.406;2022-08-20T11:28:33;4.57;;;1.15;;
71734;SDS011;59577;52.122;5.406;2022-08-20T11:31:00;4.37;;;1.17;;
71734;SDS011;59577;52.122;5.406;2022-08-20T11:33:27;4.28;;;0.93;;
71734;SDS011;59577;52.122;5.406;2022-08-20T11:35:53;2.60;;;0.90;;
71734;SDS011;59577;52.122;5.406;2022-08-20T11:38:20;4.40;;;1.30;;
71734;SDS011;59577;52.122;5.406;2022-08-20T11:40:46;7.07;;;0.90;;
71734;SDS011;59577;52.122;5.406;2022-08-20T11:43:13;6.67;;;0.90;;
71734;SDS011;59577;52.122;5.406;2022-08-20T11:45:46;3.22;;;0.85;;
71734;SDS011;59577;52.122;5.406;2022-08-20T11:48:19;3.97;;;0.93;;
71734;SDS011;59577;52.122;5.406;2022-08-20T11:50:46;4.47;;;1.05;;
71734;SDS011;59577;52.122;5.406;2022-08-20T11:53:13;4.57;;;0.80;;
71734;SDS011;59577;52.122;5.406;2022-08-20T11:55:40;4.00;;;1.20;;
71734;SDS011;59577;52.122;5.406;2022-08-20T11:58:08;6.18;;;1.23;;
71734;SDS011;59577;52.122;5.406;2022-08-20T12:00:34;5.00;;;1.20;;
71734;SDS011;59577;52.122;5.406;2022-08-20T12:03:04;4.32;;;1.02;;
71734;SDS011;59577;52.122;5.406;2022-08-20T12:05:35;3.67;;;0.90;;
71734;SDS011;59577;52.122;5.406;2022-08-20T12:08:03;3.67;;;0.90;;
71734;SDS011;59577;52.122;5.406;2022-08-20T12:10:30;2.72;;;0.93;;
71734;SDS011;59577;52.122;5.406;2022-08-20T12:12:57;2.92;;;0.90;;
71734;SDS011;59577;52.122;5.406;2022-08-20T12:15:24;7.50;;;1.15;;
71734;SDS011;59577;52.122;5.406;2022-08-20T12:17:52;3.45;;;1.08;;
71734;SDS011;59577;52.122;5.406;2022-08-20T12:20:20;4.73;;;1.17;;
71734;SDS011;59577;52.122;5.406;2022-08-20T12:22:47;4.55;;;0.77;;
71734;SDS011;59577;52.122;5.406;2022-08-20T12:25:13;5.03;;;1.02;;
71734;SDS011;59577;52.122;5.406;2022-08-20T12:27:40;3.25;;;0.90;;
71734;SDS011;59577;52.122;5.406;2022-08-20T12:30:09;6.65;;;1.05;;
71734;SDS011;59577;52.122;5.406;2022-08-20T12:32:38;5.13;;;1.83;;
71734;SDS011;59577;52.122;5.406;2022-08-20T12:35:05;7.47;;;1.30;;
71734;SDS011;59577;52.122;5.406;2022-08-20T12:37:32;5.25;;;1.08;;
71734;SDS011;59577;52.122;5.406;2022-08-20T12:39:59;6.55;;;1.30;;
71734;SDS011;59577;52.122;5.406;2022-08-20T12:42:27;3.35;;;1.17;;
71734;SDS011;59577;52.122;5.406;2022-08-20T12:44:56;4.80;;;0.97;;
71734;SDS011;59577;52.122;5.406;2022-08-20T12:47:24;6.68;;;1.40;;
71734;SDS011;59577;52.122;5.406;2022-08-20T12:50:13;5.50;;;1.13;;
71734;SDS011;59577;52.122;5.406;2022-08-20T12:52:42;4.85;;;1.23;;
71734;SDS011;59577;52.122;5.406;2022-08-20T12:55:09;5.32;;;1.20;;
71734;SDS011;59577;52.122;5.406;2022-08-20T12:57:41;6.43;;;1.23;;
71734;SDS011;59577;52.122;5.406;2022-08-20T13:00:11;3.72;;;1.05;;
71734;SDS011;59577;52.122;5.406;2022-08-20T13:02:40;3.88;;;1.38;;
71734;SDS011;59577;52.122;5.406;2022-08-20T13:05:08;5.97;;;2.05;;
71734;SDS011;59577;52.122;5.406;2022-08-20T13:07:35;6.07;;;1.33;;
71734;SDS011;59577;52.122;5.406;2022-08-20T13:10:03;4.33;;;1.17;;
71734;SDS011;59577;52.122;5.406;2022-08-20T13:12:31;5.90;;;1.15;;
71734;SDS011;59577;52.122;5.406;2022-08-20T13:14:58;5.97;;;1.20;;
71734;SDS011;59577;52.122;5.406;2022-08-20T13:17:24;4.63;;;1.27;;
71734;SDS011;59577;52.122;5.406;2022-08-20T13:20:05;5.38;;;1.35;;
71734;SDS011;59577;52.122;5.406;2022-08-20T13:22:34;3.57;;;0.90;;
71734;SDS011;59577;52.122;5.406;2022-08-20T13:25:01;7.13;;;1.20;;
71734;SDS011;59577;52.122;5.406;2022-08-20T13:27:28;5.07;;;1.33;;
71734;SDS011;59577;52.122;5.406;2022-08-20T13:29:54;5.90;;;1.40;;
71734;SDS011;59577;52.122;5.406;2022-08-20T13:32:24;6.13;;;1.40;;
71734;SDS011;59577;52.122;5.406;2022-08-20T13:34:50;4.17;;;1.50;;
71734;SDS011;59577;52.122;5.406;2022-08-20T13:37:18;5.68;;;1.30;;
71734;SDS011;59577;52.122;5.406;2022-08-20T13:39:51;7.30;;;1.60;;
71734;SDS011;59577;52.122;5.406;2022-08-20T13:42:18;5.53;;;1.17;;
71734;SDS011;59577;52.122;5.406;2022-08-20T13:44:44;7.53;;;1.67;;
71734;SDS011;59577;52.122;5.406;2022-08-20T13:47:15;3.90;;;1.60;;
71734;SDS011;59577;52.122;5.406;2022-08-20T13:49:43;4.80;;;1.20;;
71734;SDS011;59577;52.122;5.406;2022-08-20T13:52:11;6.20;;;1.40;;
71734;SDS011;59577;52.122;5.406;2022-08-20T13:54:41;7.07;;;1.58;;
71734;SDS011;59577;52.122;5.406;2022-08-20T13:57:12;4.82;;;1.23;;
71734;SDS011;59577;52.122;5.406;2022-08-20T13:59:42;7.50;;;1.93;;
71734;SDS011;59577;52.122;5.406;2022-08-20T14:02:12;7.55;;;1.30;;
71734;SDS011;59577;52.122;5.406;2022-08-20T14:04:39;5.85;;;1.25;;
71734;SDS011;59577;52.122;5.406;2022-08-20T14:07:09;5.00;;;1.13;;
71734;SDS011;59577;52.122;5.406;2022-08-20T14:09:41;3.67;;;1.00;;
71734;SDS011;59577;52.122;5.406;2022-08-20T14:12:10;7.57;;;1.03;;
71734;SDS011;59577;52.122;5.406;2022-08-20T14:14:38;4.47;;;1.10;;
71734;SDS011;59577;52.122;5.406;2022-08-20T14:17:16;4.13;;;1.00;;
71734;SDS011;59577;52.122;5.406;2022-08-20T14:19:43;4.50;;;0.77;;
71734;SDS011;59577;52.122;5.406;2022-08-20T14:22:11;4.45;;;0.93;;
71734;SDS011;59577;52.122;5.406;2022-08-20T14:24:37;4.70;;;1.20;;
71734;SDS011;59577;52.122;5.406;2022-08-20T14:27:05;3.85;;;1.00;;
71734;SDS011;59577;52.122;5.406;2022-08-20T14:29:37;4.43;;;0.98;;
71734;SDS011;59577;52.122;5.406;2022-08-20T14:32:06;7.88;;;1.00;;
71734;SDS011;59577;52.122;5.406;2022-08-20T14:34:32;5.82;;;1.40;;
71734;SDS011;59577;52.122;5.406;2022-08-20T14:39:36;3.40;;;0.80;;
71734;SDS011;59577;52.122;5.406;2022-08-20T14:42:02;7.65;;;1.00;;
71734;SDS011;59577;52.122;5.406;2022-08-20T14:44:29;5.88;;;0.80;;
71734;SDS011;59577;52.122;5.406;2022-08-20T14:46:56;3.90;;;1.13;;
71734;SDS011;59577;52.122;5.406;2022-08-20T14:49:23;5.80;;;1.20;;
71734;SDS011;59577;52.122;5.406;2022-08-20T14:51:49;7.97;;;2.03;;
71734;SDS011;59577;52.122;5.406;2022-08-20T14:54:16;5.78;;;1.17;;
71734;SDS011;59577;52.122;5.406;2022-08-20T14:56:42;7.10;;;1.15;;
71734;SDS011;59577;52.122;5.406;2022-08-20T14:59:09;4.68;;;1.10;;
71734;SDS011;59577;52.122;5.406;2022-08-20T15:01:35;3.17;;;1.17;;
71734;SDS011;59577;52.122;5.406;2022-08-20T15:04:02;3.70;;;0.80;;
71734;SDS011;59577;52.122;5.406;2022-08-20T15:06:29;5.03;;;0.90;;
71734;SDS011;59577;52.122;5.406;2022-08-20T15:08:56;6.03;;;1.17;;
71734;SDS011;59577;52.122;5.406;2022-08-20T15:11:23;7.32;;;1.35;;
71734;SDS011;59577;52.122;5.406;2022-08-20T15:13:49;4.57;;;1.70;;
71734;SDS011;59577;52.122;5.406;2022-08-20T15:16:15;6.25;;;1.20;;